sensor_id;sensor_type;location;lat;lon;timestamp;temperature;humidity
22629;DHT22;11481;53.694;9.910;2023-07-20T00:02:12;16.00;99.90
22629;DHT22;11481;53.694;9.910;2023-07-20T00:04:39;16.10;99.90
22629;DHT22;11481;53.694;9.910;2023-07-20T00:07:06;16.10;99.90
22629;DHT22;11481;53.694;9.910;2023-07-20T00:09:33;16.10;99.90
22629;DHT22;11481;53.694;9.910;2023-07-20T00:11:59;16.00;99.90
22629;DHT22;11481;53.694;9.910;2023-07-20T00:14:26;16.00;99.90
22629;DHT22;11481;53.694;9.910;2023-07-20T00:16:55;16.10;99.90
22629;DHT22;11481;53.694;9.910;2023-07-20T00:19:26;16.00;99.90
22629;DHT22;11481;53.694;9.910;2023-07-20T00:21:54;16.00;99.90
22629;DHT22;11481;53.694;9.910;2023-07-20T00:24:21;16.00;99.90
22629;DHT22;11481;53.694;9.910;2023-07-20T00:26:48;16.00;99.90
22629;DHT22;11481;53.694;9.910;2023-07-20T00:29:15;15.90;99.90
22629;DHT22;11481;53.694;9.910;2023-07-20T00:31:41;15.90;99.90
22629;DHT22;11481;53.694;9.910;2023-07-20T00:34:09;15.90;99.90
22629;DHT22;11481;53.694;9.910;2023-07-20T00:36:36;15.80;99.90
22629;DHT22;11481;53.694;9.910;2023-07-20T00:39:03;15.70;99.90
22629;DHT22;11481;53.694;9.910;2023-07-20T00:41:29;15.70;99.90
22629;DHT22;11481;53.694;9.910;2023-07-20T00:43:58;15.70;99.90
22629;DHT22;11481;53.694;9.910;2023-07-20T00:46:25;15.70;99.90
22629;DHT22;11481;53.694;9.910;2023-07-20T00:48:53;15.60;99.90
22629;DHT22;11481;53.694;9.910;2023-07-20T00:51:21;15.50;99.90
22629;DHT22;11481;53.694;9.910;2023-07-20T00:53:49;15.60;99.90
22629;DHT22;11481;53.694;9.910;2023-07-20T00:56:16;15.60;99.90
22629;DHT22;11481;53.694;9.910;2023-07-20T00:58:43;15.70;99.90
22629;DHT22;11481;53.694;9.910;2023-07-20T01:01:10;15.70;99.90
22629;DHT22;11481;53.694;9.910;2023-07-20T01:03:37;15.80;99.90
22629;DHT22;11481;53.694;9.910;2023-07-20T01:06:29;15.80;99.90
22629;DHT22;11481;53.694;9.910;2023-07-20T01:09:11;15.80;99.90
22629;DHT22;11481;53.694;9.910;2023-07-20T01:11:57;15.90;99.90
22629;DHT22;11481;53.694;9.910;2023-07-20T01:14:26;15.90;99.90
22629;DHT22;11481;53.694;9.910;2023-07-20T01:16:53;15.70;99.90
22629;DHT22;11481;53.694;9.910;2023-07-20T01:19:20;15.60;99.90
22629;DHT22;11481;53.694;9.910;2023-07-20T01:21:57;15.60;99.90
22629;DHT22;11481;53.694;9.910;2023-07-20T01:24:52;15.60;99.90
22629;DHT22;11481;53.694;9.910;2023-07-20T01:32:57;15.50;99.90
22629;DHT22;11481;53.694;9.910;2023-07-20T01:35:28;15.40;99.90
22629;DHT22;11481;53.694;9.910;2023-07-20T01:37:55;15.30;99.90
22629;DHT22;11481;53.694;9.910;2023-07-20T01:40:25;15.30;99.90
22629;DHT22;11481;53.694;9.910;2023-07-20T01:42:52;15.30;99.90
22629;DHT22;11481;53.694;9.910;2023-07-20T01:45:19;15.30;99.90
22629;DHT22;11481;53.694;9.910;2023-07-20T01:47:46;15.30;99.90
22629;DHT22;11481;53.694;9.910;2023-07-20T01:50:13;15.30;99.90
22629;DHT22;11481;53.694;9.910;2023-07-20T01:52:40;15.30;99.90
22629;DHT22;11481;53.694;9.910;2023-07-20T01:55:07;15.20;99.90
22629;DHT22;11481;53.694;9.910;2023-07-20T01:57:33;15.10;99.90
22629;DHT22;11481;53.694;9.910;2023-07-20T02:00:00;15.10;99.90
22629;DHT22;11481;53.694;9.910;2023-07-20T02:02:28;15.20;99.90
22629;DHT22;11481;53.694;9.910;2023-07-20T02:04:55;15.30;99.90
22629;DHT22;11481;53.694;9.910;2023-07-20T02:07:21;15.30;99.90
22629;DHT22;11481;53.694;9.910;2023-07-20T02:09:48;15.30;99.90
22629;DHT22;11481;53.694;9.910;2023-07-20T02:12:15;15.30;99.90
22629;DHT22;11481;53.694;9.910;2023-07-20T02:14:42;15.20;99.90
22629;DHT22;11481;53.694;9.910;2023-07-20T02:17:08;15.10;99.90
22629;DHT22;11481;53.694;9.910;2023-07-20T02:19:37;15.10;99.90
22629;DHT22;11481;53.694;9.910;2023-07-20T02:22:04;15.10;99.90
22629;DHT22;11481;53.694;9.910;2023-07-20T02:24:32;15.10;99.90
22629;DHT22;11481;53.694;9.910;2023-07-20T02:26:59;15.20;99.90
22629;DHT22;11481;53.694;9.910;2023-07-20T02:29:25;15.20;99.90
22629;DHT22;11481;53.694;9.910;2023-07-20T02:31:52;15.20;99.90
22629;DHT22;11481;53.694;9.910;2023-07-20T02:34:18;15.30;99.90
22629;DHT22;11481;53.694;9.910;2023-07-20T02:36:45;15.20;99.90
22629;DHT22;11481;53.694;9.910;2023-07-20T02:39:12;15.20;99.90
22629;DHT22;11481;53.694;9.910;2023-07-20T02:41:39;15.20;99.90
22629;DHT22;11481;53.694;9.910;2023-07-20T02:44:05;15.20;99.90
22629;DHT22;11481;53.694;9.910;2023-07-20T02:46:32;15.20;99.90
22629;DHT22;11481;53.694;9.910;2023-07-20T02:48:59;15.30;99.90
22629;DHT22;11481;53.694;9.910;2023-07-20T02:51:25;15.30;99.90
22629;DHT22;11481;53.694;9.910;2023-07-20T02:53:52;15.30;99.90
22629;DHT22;11481;53.694;9.910;2023-07-20T02:56:19;15.20;99.90
22629;DHT22;11481;53.694;9.910;2023-07-20T02:58:50;15.20;99.90
22629;DHT22;11481;53.694;9.910;2023-07-20T03:01:16;15.20;99.90
22629;DHT22;11481;53.694;9.910;2023-07-20T03:03:43;15.20;99.90
22629;DHT22;11481;53.694;9.910;2023-07-20T03:06:14;15.20;99.90
22629;DHT22;11481;53.694;9.910;2023-07-20T03:08:41;15.20;99.90
22629;DHT22;11481;53.694;9.910;2023-07-20T03:11:08;15.10;99.90
22629;DHT22;11481;53.694;9.910;2023-07-20T03:13:35;15.10;99.90
22629;DHT22;11481;53.694;9.910;2023-07-20T03:16:01;15.00;99.90
22629;DHT22;11481;53.694;9.910;2023-07-20T03:18:28;15.00;99.90
22629;DHT22;11481;53.694;9.910;2023-07-20T03:20:55;15.00;99.90
22629;DHT22;11481;53.694;9.910;2023-07-20T03:23:21;15.00;99.90
22629;DHT22;11481;53.694;9.910;2023-07-20T03:25:48;15.00;99.90
22629;DHT22;11481;53.694;9.910;2023-07-20T03:28:15;14.90;99.90
22629;DHT22;11481;53.694;9.910;2023-07-20T03:30:41;14.90;99.90
22629;DHT22;11481;53.694;9.910;2023-07-20T03:33:08;14.90;99.90
22629;DHT22;11481;53.694;9.910;2023-07-20T03:35:35;14.90;99.90
22629;DHT22;11481;53.694;9.910;2023-07-20T03:38:01;14.80;99.90
22629;DHT22;11481;53.694;9.910;2023-07-20T03:40:28;14.90;99.90
22629;DHT22;11481;53.694;9.910;2023-07-20T03:42:55;14.90;99.90
22629;DHT22;11481;53.694;9.910;2023-07-20T03:45:21;14.90;99.90
22629;DHT22;11481;53.694;9.910;2023-07-20T03:47:50;14.90;99.90
22629;DHT22;11481;53.694;9.910;2023-07-20T03:50:17;14.90;99.90
22629;DHT22;11481;53.694;9.910;2023-07-20T03:52:43;14.90;99.90
22629;DHT22;11481;53.694;9.910;2023-07-20T03:55:10;14.90;99.90
22629;DHT22;11481;53.694;9.910;2023-07-20T03:57:37;14.90;99.90
22629;DHT22;11481;53.694;9.910;2023-07-20T04:00:04;14.80;99.90
22629;DHT22;11481;53.694;9.910;2023-07-20T04:02:34;14.80;99.90
22629;DHT22;11481;53.694;9.910;2023-07-20T04:05:01;14.80;99.90
22629;DHT22;11481;53.694;9.910;2023-07-20T04:07:27;14.60;99.90
22629;DHT22;11481;53.694;9.910;2023-07-20T04:09:54;14.70;99.90
22629;DHT22;11481;53.694;9.910;2023-07-20T04:12:20;14.80;99.90
22629;DHT22;11481;53.694;9.910;2023-07-20T04:14:47;14.80;99.90
22629;DHT22;11481;53.694;9.910;2023-07-20T04:17:14;14.70;99.90
22629;DHT22;11481;53.694;9.910;2023-07-20T04:19:40;14.70;99.90
22629;DHT22;11481;53.694;9.910;2023-07-20T04:22:07;14.60;99.90
22629;DHT22;11481;53.694;9.910;2023-07-20T04:24:34;14.70;99.90
22629;DHT22;11481;53.694;9.910;2023-07-20T04:27:01;14.70;99.90
22629;DHT22;11481;53.694;9.910;2023-07-20T04:29:28;14.70;99.90
22629;DHT22;11481;53.694;9.910;2023-07-20T04:31:55;14.80;99.90
22629;DHT22;11481;53.694;9.910;2023-07-20T04:34:21;14.80;99.90
22629;DHT22;11481;53.694;9.910;2023-07-20T04:36:48;14.70;99.90
22629;DHT22;11481;53.694;9.910;2023-07-20T04:39:15;14.80;99.90
22629;DHT22;11481;53.694;9.910;2023-07-20T04:41:57;14.80;99.90
22629;DHT22;11481;53.694;9.910;2023-07-20T04:44:24;14.80;99.90
22629;DHT22;11481;53.694;9.910;2023-07-20T04:46:50;14.90;99.90
22629;DHT22;11481;53.694;9.910;2023-07-20T04:49:17;14.90;99.90
22629;DHT22;11481;53.694;9.910;2023-07-20T04:51:45;15.00;99.90
22629;DHT22;11481;53.694;9.910;2023-07-20T04:54:12;15.00;99.90
22629;DHT22;11481;53.694;9.910;2023-07-20T04:56:40;15.00;99.90
22629;DHT22;11481;53.694;9.910;2023-07-20T04:59:07;15.00;99.90
22629;DHT22;11481;53.694;9.910;2023-07-20T05:01:33;15.00;99.90
22629;DHT22;11481;53.694;9.910;2023-07-20T05:04:00;15.00;99.90
22629;DHT22;11481;53.694;9.910;2023-07-20T05:06:27;15.00;99.90
22629;DHT22;11481;53.694;9.910;2023-07-20T05:08:53;15.10;99.90
22629;DHT22;11481;53.694;9.910;2023-07-20T05:11:20;15.00;99.90
22629;DHT22;11481;53.694;9.910;2023-07-20T05:13:47;15.10;99.90
22629;DHT22;11481;53.694;9.910;2023-07-20T05:16:14;15.20;99.90
22629;DHT22;11481;53.694;9.910;2023-07-20T05:18:40;15.20;99.90
22629;DHT22;11481;53.694;9.910;2023-07-20T05:21:07;15.30;99.90
22629;DHT22;11481;53.694;9.910;2023-07-20T05:23:34;15.30;99.90
22629;DHT22;11481;53.694;9.910;2023-07-20T05:26:01;15.40;99.90
22629;DHT22;11481;53.694;9.910;2023-07-20T05:28:27;15.40;99.90
22629;DHT22;11481;53.694;9.910;2023-07-20T05:30:55;15.40;99.90
22629;DHT22;11481;53.694;9.910;2023-07-20T05:33:22;15.40;99.90
22629;DHT22;11481;53.694;9.910;2023-07-20T05:35:48;15.50;99.90
22629;DHT22;11481;53.694;9.910;2023-07-20T05:38:15;15.50;99.90
22629;DHT22;11481;53.694;9.910;2023-07-20T05:40:44;15.50;99.90
22629;DHT22;11481;53.694;9.910;2023-07-20T05:43:11;15.50;99.90
22629;DHT22;11481;53.694;9.910;2023-07-20T05:45:41;15.50;99.90
22629;DHT22;11481;53.694;9.910;2023-07-20T05:48:08;15.60;99.90
22629;DHT22;11481;53.694;9.910;2023-07-20T05:50:44;15.50;99.90
22629;DHT22;11481;53.694;9.910;2023-07-20T05:53:11;15.60;99.90
22629;DHT22;11481;53.694;9.910;2023-07-20T05:55:37;15.70;99.90
22629;DHT22;11481;53.694;9.910;2023-07-20T05:58:05;15.80;99.90
22629;DHT22;11481;53.694;9.910;2023-07-20T06:00:33;15.80;99.90
22629;DHT22;11481;53.694;9.910;2023-07-20T06:03:00;15.60;99.90
22629;DHT22;11481;53.694;9.910;2023-07-20T06:05:27;15.60;99.90
22629;DHT22;11481;53.694;9.910;2023-07-20T06:07:55;15.70;99.90
22629;DHT22;11481;53.694;9.910;2023-07-20T06:10:22;15.70;99.90
22629;DHT22;11481;53.694;9.910;2023-07-20T06:12:48;15.80;99.90
22629;DHT22;11481;53.694;9.910;2023-07-20T06:15:34;15.90;99.90
22629;DHT22;11481;53.694;9.910;2023-07-20T06:18:04;15.90;99.90
22629;DHT22;11481;53.694;9.910;2023-07-20T06:20:32;15.90;99.90
22629;DHT22;11481;53.694;9.910;2023-07-20T06:22:59;16.00;99.90
22629;DHT22;11481;53.694;9.910;2023-07-20T06:25:25;16.10;99.90
22629;DHT22;11481;53.694;9.910;2023-07-20T06:27:52;16.00;99.90
22629;DHT22;11481;53.694;9.910;2023-07-20T06:30:21;16.00;99.90
22629;DHT22;11481;53.694;9.910;2023-07-20T06:32:48;16.10;99.90
22629;DHT22;11481;53.694;9.910;2023-07-20T06:35:15;16.20;99.90
22629;DHT22;11481;53.694;9.910;2023-07-20T06:37:42;16.10;99.90
22629;DHT22;11481;53.694;9.910;2023-07-20T06:40:09;16.20;99.90
22629;DHT22;11481;53.694;9.910;2023-07-20T06:42:39;16.40;99.90
22629;DHT22;11481;53.694;9.910;2023-07-20T06:45:09;16.50;99.90
22629;DHT22;11481;53.694;9.910;2023-07-20T06:47:38;16.60;99.90
22629;DHT22;11481;53.694;9.910;2023-07-20T06:50:06;16.60;99.90
22629;DHT22;11481;53.694;9.910;2023-07-20T06:52:33;16.70;99.90
22629;DHT22;11481;53.694;9.910;2023-07-20T06:55:00;16.80;99.90
22629;DHT22;11481;53.694;9.910;2023-07-20T06:57:31;16.90;99.90
22629;DHT22;11481;53.694;9.910;2023-07-20T06:59:58;16.90;99.90
22629;DHT22;11481;53.694;9.910;2023-07-20T07:02:25;17.00;99.90
22629;DHT22;11481;53.694;9.910;2023-07-20T07:04:51;17.10;99.90
22629;DHT22;11481;53.694;9.910;2023-07-20T07:07:26;17.10;99.90
22629;DHT22;11481;53.694;9.910;2023-07-20T07:09:54;17.30;99.90
22629;DHT22;11481;53.694;9.910;2023-07-20T07:12:21;17.30;99.90
22629;DHT22;11481;53.694;9.910;2023-07-20T07:14:48;17.40;99.90
22629;DHT22;11481;53.694;9.910;2023-07-20T07:17:14;17.40;99.90
22629;DHT22;11481;53.694;9.910;2023-07-20T07:19:46;17.40;99.90
22629;DHT22;11481;53.694;9.910;2023-07-20T07:22:14;17.00;99.90
22629;DHT22;11481;53.694;9.910;2023-07-20T07:24:41;16.90;99.90
22629;DHT22;11481;53.694;9.910;2023-07-20T07:27:08;16.30;99.90
22629;DHT22;11481;53.694;9.910;2023-07-20T07:29:35;15.80;99.90
22629;DHT22;11481;53.694;9.910;2023-07-20T07:32:02;15.40;99.90
22629;DHT22;11481;53.694;9.910;2023-07-20T07:34:29;15.20;99.90
22629;DHT22;11481;53.694;9.910;2023-07-20T07:36:56;15.20;99.90
22629;DHT22;11481;53.694;9.910;2023-07-20T07:39:22;15.30;99.90
22629;DHT22;11481;53.694;9.910;2023-07-20T07:41:58;15.40;99.90
22629;DHT22;11481;53.694;9.910;2023-07-20T07:44:25;15.50;99.90
22629;DHT22;11481;53.694;9.910;2023-07-20T07:46:52;15.60;99.90
22629;DHT22;11481;53.694;9.910;2023-07-20T07:49:19;15.80;99.90
22629;DHT22;11481;53.694;9.910;2023-07-20T07:51:46;15.90;99.90
22629;DHT22;11481;53.694;9.910;2023-07-20T07:54:13;16.10;99.90
22629;DHT22;11481;53.694;9.910;2023-07-20T07:56:39;16.30;99.90
22629;DHT22;11481;53.694;9.910;2023-07-20T07:59:07;16.50;99.90
22629;DHT22;11481;53.694;9.910;2023-07-20T08:01:34;16.40;99.90
22629;DHT22;11481;53.694;9.910;2023-07-20T08:04:01;16.60;99.90
22629;DHT22;11481;53.694;9.910;2023-07-20T08:06:27;16.50;99.90
22629;DHT22;11481;53.694;9.910;2023-07-20T08:08:54;16.60;99.90
22629;DHT22;11481;53.694;9.910;2023-07-20T08:11:21;16.60;99.90
22629;DHT22;11481;53.694;9.910;2023-07-20T08:13:51;16.60;99.90
22629;DHT22;11481;53.694;9.910;2023-07-20T08:16:18;16.70;99.90
22629;DHT22;11481;53.694;9.910;2023-07-20T08:18:44;16.90;99.90
22629;DHT22;11481;53.694;9.910;2023-07-20T08:21:12;17.00;99.90
22629;DHT22;11481;53.694;9.910;2023-07-20T08:23:39;16.90;99.90
22629;DHT22;11481;53.694;9.910;2023-07-20T08:26:05;17.20;99.90
22629;DHT22;11481;53.694;9.910;2023-07-20T08:28:32;17.20;99.90
22629;DHT22;11481;53.694;9.910;2023-07-20T08:30:59;17.40;99.90
22629;DHT22;11481;53.694;9.910;2023-07-20T08:33:26;17.40;99.90
22629;DHT22;11481;53.694;9.910;2023-07-20T08:35:56;17.40;99.90
22629;DHT22;11481;53.694;9.910;2023-07-20T08:38:24;17.30;99.90
22629;DHT22;11481;53.694;9.910;2023-07-20T08:40:51;17.40;99.90
22629;DHT22;11481;53.694;9.910;2023-07-20T08:43:20;17.50;99.90
22629;DHT22;11481;53.694;9.910;2023-07-20T08:45:52;17.70;99.90
22629;DHT22;11481;53.694;9.910;2023-07-20T08:48:20;17.60;99.90
22629;DHT22;11481;53.694;9.910;2023-07-20T08:50:51;17.70;99.90
22629;DHT22;11481;53.694;9.910;2023-07-20T08:53:18;17.90;99.90
22629;DHT22;11481;53.694;9.910;2023-07-20T08:55:45;18.10;99.90
22629;DHT22;11481;53.694;9.910;2023-07-20T08:58:14;18.20;99.90
22629;DHT22;11481;53.694;9.910;2023-07-20T09:00:42;18.00;99.90
22629;DHT22;11481;53.694;9.910;2023-07-20T09:03:12;18.10;99.90
22629;DHT22;11481;53.694;9.910;2023-07-20T09:05:41;18.20;99.90
22629;DHT22;11481;53.694;9.910;2023-07-20T09:08:07;17.80;99.90
22629;DHT22;11481;53.694;9.910;2023-07-20T09:10:34;17.10;99.90
22629;DHT22;11481;53.694;9.910;2023-07-20T09:13:01;16.50;99.90
22629;DHT22;11481;53.694;9.910;2023-07-20T09:15:29;16.40;99.90
22629;DHT22;11481;53.694;9.910;2023-07-20T09:17:55;16.20;99.90
22629;DHT22;11481;53.694;9.910;2023-07-20T09:20:22;16.00;99.90
22629;DHT22;11481;53.694;9.910;2023-07-20T09:22:50;16.10;99.90
22629;DHT22;11481;53.694;9.910;2023-07-20T09:25:19;16.50;99.90
22629;DHT22;11481;53.694;9.910;2023-07-20T09:27:49;16.70;99.90
22629;DHT22;11481;53.694;9.910;2023-07-20T09:30:18;16.80;99.90
22629;DHT22;11481;53.694;9.910;2023-07-20T09:32:49;16.70;99.90
22629;DHT22;11481;53.694;9.910;2023-07-20T09:35:21;17.00;99.90
22629;DHT22;11481;53.694;9.910;2023-07-20T09:38:00;17.20;99.90
22629;DHT22;11481;53.694;9.910;2023-07-20T09:40:29;17.10;99.90
22629;DHT22;11481;53.694;9.910;2023-07-20T09:42:59;17.30;99.90
22629;DHT22;11481;53.694;9.910;2023-07-20T09:45:33;17.50;99.90
22629;DHT22;11481;53.694;9.910;2023-07-20T09:48:06;17.70;99.90
22629;DHT22;11481;53.694;9.910;2023-07-20T09:50:43;17.40;99.90
22629;DHT22;11481;53.694;9.910;2023-07-20T09:53:15;17.70;99.90
22629;DHT22;11481;53.694;9.910;2023-07-20T09:55:44;17.70;99.90
22629;DHT22;11481;53.694;9.910;2023-07-20T09:58:11;17.70;99.90
22629;DHT22;11481;53.694;9.910;2023-07-20T10:00:39;17.80;99.90
22629;DHT22;11481;53.694;9.910;2023-07-20T10:03:14;18.10;99.90
22629;DHT22;11481;53.694;9.910;2023-07-20T10:05:49;18.20;99.90
22629;DHT22;11481;53.694;9.910;2023-07-20T10:08:19;18.20;99.90
22629;DHT22;11481;53.694;9.910;2023-07-20T10:10:50;17.30;99.90
22629;DHT22;11481;53.694;9.910;2023-07-20T10:13:18;16.90;99.90
22629;DHT22;11481;53.694;9.910;2023-07-20T10:15:50;16.70;99.90
22629;DHT22;11481;53.694;9.910;2023-07-20T10:18:31;16.20;99.90
22629;DHT22;11481;53.694;9.910;2023-07-20T10:21:01;15.90;99.90
22629;DHT22;11481;53.694;9.910;2023-07-20T10:23:33;15.90;99.90
22629;DHT22;11481;53.694;9.910;2023-07-20T10:26:01;15.80;99.90
22629;DHT22;11481;53.694;9.910;2023-07-20T10:28:29;15.60;99.90
22629;DHT22;11481;53.694;9.910;2023-07-20T10:30:56;15.70;99.90
22629;DHT22;11481;53.694;9.910;2023-07-20T10:33:23;15.80;99.90
22629;DHT22;11481;53.694;9.910;2023-07-20T10:38:17;16.40;99.90
22629;DHT22;11481;53.694;9.910;2023-07-20T10:40:54;16.40;99.90
22629;DHT22;11481;53.694;9.910;2023-07-20T10:43:21;16.90;99.90
22629;DHT22;11481;53.694;9.910;2023-07-20T10:45:53;16.50;99.90
22629;DHT22;11481;53.694;9.910;2023-07-20T10:48:22;16.20;99.90
22629;DHT22;11481;53.694;9.910;2023-07-20T10:51:14;16.20;99.90
22629;DHT22;11481;53.694;9.910;2023-07-20T10:53:41;16.30;99.90
22629;DHT22;11481;53.694;9.910;2023-07-20T10:56:22;16.50;99.90
22629;DHT22;11481;53.694;9.910;2023-07-20T10:58:49;16.70;99.90
22629;DHT22;11481;53.694;9.910;2023-07-20T11:01:17;16.80;99.90
22629;DHT22;11481;53.694;9.910;2023-07-20T11:03:49;17.10;99.90
22629;DHT22;11481;53.694;9.910;2023-07-20T11:09:12;17.30;99.90
22629;DHT22;11481;53.694;9.910;2023-07-20T11:11:46;17.60;99.90
22629;DHT22;11481;53.694;9.910;2023-07-20T11:14:25;17.60;99.90
22629;DHT22;11481;53.694;9.910;2023-07-20T11:16:53;17.60;99.90
22629;DHT22;11481;53.694;9.910;2023-07-20T11:19:23;17.70;99.90
22629;DHT22;11481;53.694;9.910;2023-07-20T11:21:55;17.90;99.90
22629;DHT22;11481;53.694;9.910;2023-07-20T11:24:30;18.30;99.90
22629;DHT22;11481;53.694;9.910;2023-07-20T11:26:58;18.50;99.90
22629;DHT22;11481;53.694;9.910;2023-07-20T11:29:27;18.40;99.90
22629;DHT22;11481;53.694;9.910;2023-07-20T11:32:00;18.30;99.90
22629;DHT22;11481;53.694;9.910;2023-07-20T11:34:32;18.30;99.90
22629;DHT22;11481;53.694;9.910;2023-07-20T11:36:59;18.60;99.90
22629;DHT22;11481;53.694;9.910;2023-07-20T11:39:29;18.50;99.90
22629;DHT22;11481;53.694;9.910;2023-07-20T11:41:57;18.20;99.90
22629;DHT22;11481;53.694;9.910;2023-07-20T11:44:26;17.80;99.90
22629;DHT22;11481;53.694;9.910;2023-07-20T11:47:08;17.60;99.90
22629;DHT22;11481;53.694;9.910;2023-07-20T11:49:39;17.30;99.90
22629;DHT22;11481;53.694;9.910;2023-07-20T11:52:07;17.10;99.90
22629;DHT22;11481;53.694;9.910;2023-07-20T11:54:35;16.90;99.90
22629;DHT22;11481;53.694;9.910;2023-07-20T11:57:04;16.70;99.90
22629;DHT22;11481;53.694;9.910;2023-07-20T11:59:32;16.90;99.90
22629;DHT22;11481;53.694;9.910;2023-07-20T12:02:01;17.00;99.90
22629;DHT22;11481;53.694;9.910;2023-07-20T12:04:31;16.90;99.90
22629;DHT22;11481;53.694;9.910;2023-07-20T12:06:58;17.20;99.90
22629;DHT22;11481;53.694;9.910;2023-07-20T12:09:25;17.40;99.90
22629;DHT22;11481;53.694;9.910;2023-07-20T12:12:10;17.60;99.90
22629;DHT22;11481;53.694;9.910;2023-07-20T12:14:40;17.30;99.90
22629;DHT22;11481;53.694;9.910;2023-07-20T12:17:08;17.10;99.90
22629;DHT22;11481;53.694;9.910;2023-07-20T12:19:38;17.10;99.90
22629;DHT22;11481;53.694;9.910;2023-07-20T12:22:06;17.10;99.90
22629;DHT22;11481;53.694;9.910;2023-07-20T12:24:34;17.30;99.90
22629;DHT22;11481;53.694;9.910;2023-07-20T12:27:02;17.50;99.90
22629;DHT22;11481;53.694;9.910;2023-07-20T12:29:29;17.40;99.90
22629;DHT22;11481;53.694;9.910;2023-07-20T12:31:58;17.50;99.90
22629;DHT22;11481;53.694;9.910;2023-07-20T12:34:24;17.50;99.90
22629;DHT22;11481;53.694;9.910;2023-07-20T12:36:51;17.60;99.90
22629;DHT22;11481;53.694;9.910;2023-07-20T12:39:18;17.50;99.90
22629;DHT22;11481;53.694;9.910;2023-07-20T12:41:44;17.80;99.90
22629;DHT22;11481;53.694;9.910;2023-07-20T12:44:12;17.90;99.90
22629;DHT22;11481;53.694;9.910;2023-07-20T12:46:39;18.00;99.90
22629;DHT22;11481;53.694;9.910;2023-07-20T12:49:06;19.20;99.90
22629;DHT22;11481;53.694;9.910;2023-07-20T12:51:32;18.20;99.90
22629;DHT22;11481;53.694;9.910;2023-07-20T12:53:59;18.60;99.90
22629;DHT22;11481;53.694;9.910;2023-07-20T12:56:27;18.80;99.90
22629;DHT22;11481;53.694;9.910;2023-07-20T12:58:57;18.90;99.90
22629;DHT22;11481;53.694;9.910;2023-07-20T13:01:24;19.10;99.90
22629;DHT22;11481;53.694;9.910;2023-07-20T13:03:51;19.10;99.90
22629;DHT22;11481;53.694;9.910;2023-07-20T13:06:20;18.80;99.90
22629;DHT22;11481;53.694;9.910;2023-07-20T13:08:51;18.50;99.90
22629;DHT22;11481;53.694;9.910;2023-07-20T13:11:22;18.50;99.90
22629;DHT22;11481;53.694;9.910;2023-07-20T13:13:52;18.50;99.90
22629;DHT22;11481;53.694;9.910;2023-07-20T13:16:18;18.50;99.90
22629;DHT22;11481;53.694;9.910;2023-07-20T13:18:45;18.20;99.90
22629;DHT22;11481;53.694;9.910;2023-07-20T13:21:12;18.10;99.90
22629;DHT22;11481;53.694;9.910;2023-07-20T13:23:39;18.10;99.90
22629;DHT22;11481;53.694;9.910;2023-07-20T13:26:05;18.40;99.90
22629;DHT22;11481;53.694;9.910;2023-07-20T13:28:34;18.80;99.90
22629;DHT22;11481;53.694;9.910;2023-07-20T13:31:01;18.90;99.90
22629;DHT22;11481;53.694;9.910;2023-07-20T13:33:29;19.10;99.90
22629;DHT22;11481;53.694;9.910;2023-07-20T13:35:56;19.40;99.90
22629;DHT22;11481;53.694;9.910;2023-07-20T13:38:23;19.00;99.90
22629;DHT22;11481;53.694;9.910;2023-07-20T13:40:49;19.00;99.90
22629;DHT22;11481;53.694;9.910;2023-07-20T13:43:16;18.90;99.90
22629;DHT22;11481;53.694;9.910;2023-07-20T13:45:43;18.80;99.90
22629;DHT22;11481;53.694;9.910;2023-07-20T13:48:10;18.60;99.90
22629;DHT22;11481;53.694;9.910;2023-07-20T13:50:36;18.60;99.90
22629;DHT22;11481;53.694;9.910;2023-07-20T13:53:07;18.60;99.90
22629;DHT22;11481;53.694;9.910;2023-07-20T13:55:39;18.80;99.90
22629;DHT22;11481;53.694;9.910;2023-07-20T13:58:10;18.90;99.90
22629;DHT22;11481;53.694;9.910;2023-07-20T14:00:39;19.00;99.90
22629;DHT22;11481;53.694;9.910;2023-07-20T14:03:07;19.20;99.90
22629;DHT22;11481;53.694;9.910;2023-07-20T14:05:37;19.20;99.90
22629;DHT22;11481;53.694;9.910;2023-07-20T14:08:06;19.00;99.90
22629;DHT22;11481;53.694;9.910;2023-07-20T14:10:33;19.00;99.90
22629;DHT22;11481;53.694;9.910;2023-07-20T14:13:20;19.10;99.90
22629;DHT22;11481;53.694;9.910;2023-07-20T14:16:03;19.60;99.90
22629;DHT22;11481;53.694;9.910;2023-07-20T14:18:30;19.90;99.90
22629;DHT22;11481;53.694;9.910;2023-07-20T14:20:59;20.10;99.90
22629;DHT22;11481;53.694;9.910;2023-07-20T14:23:25;19.90;99.90
22629;DHT22;11481;53.694;9.910;2023-07-20T14:25:56;19.80;99.90
22629;DHT22;11481;53.694;9.910;2023-07-20T14:28:25;19.50;99.90
22629;DHT22;11481;53.694;9.910;2023-07-20T14:30:52;19.40;99.90
22629;DHT22;11481;53.694;9.910;2023-07-20T14:33:18;19.50;99.90
22629;DHT22;11481;53.694;9.910;2023-07-20T14:35:45;19.70;99.90
22629;DHT22;11481;53.694;9.910;2023-07-20T14:38:14;19.80;99.90
22629;DHT22;11481;53.694;9.910;2023-07-20T14:40:40;19.90;99.90
22629;DHT22;11481;53.694;9.910;2023-07-20T14:43:07;20.00;99.90
22629;DHT22;11481;53.694;9.910;2023-07-20T14:45:34;19.80;99.90
22629;DHT22;11481;53.694;9.910;2023-07-20T14:48:04;19.90;99.90
22629;DHT22;11481;53.694;9.910;2023-07-20T14:50:31;19.90;99.90
22629;DHT22;11481;53.694;9.910;2023-07-20T14:52:57;20.30;99.90
22629;DHT22;11481;53.694;9.910;2023-07-20T14:55:31;20.50;99.90
22629;DHT22;11481;53.694;9.910;2023-07-20T14:57:57;20.70;99.90
22629;DHT22;11481;53.694;9.910;2023-07-20T15:00:24;20.40;99.90
22629;DHT22;11481;53.694;9.910;2023-07-20T15:02:51;20.50;99.90
22629;DHT22;11481;53.694;9.910;2023-07-20T15:05:24;20.70;99.90
22629;DHT22;11481;53.694;9.910;2023-07-20T15:07:53;20.40;99.90
22629;DHT22;11481;53.694;9.910;2023-07-20T15:10:20;20.20;99.90
22629;DHT22;11481;53.694;9.910;2023-07-20T15:12:47;20.20;99.90
22629;DHT22;11481;53.694;9.910;2023-07-20T15:15:14;20.60;99.90
22629;DHT22;11481;53.694;9.910;2023-07-20T15:17:42;20.00;99.90
22629;DHT22;11481;53.694;9.910;2023-07-20T15:20:11;19.90;99.90
22629;DHT22;11481;53.694;9.910;2023-07-20T15:22:40;20.00;99.90
22629;DHT22;11481;53.694;9.910;2023-07-20T15:25:08;19.80;99.90
22629;DHT22;11481;53.694;9.910;2023-07-20T15:27:38;19.70;99.90
22629;DHT22;11481;53.694;9.910;2023-07-20T15:30:06;19.80;99.90
22629;DHT22;11481;53.694;9.910;2023-07-20T15:32:32;19.90;99.90
22629;DHT22;11481;53.694;9.910;2023-07-20T15:35:19;20.80;99.90
22629;DHT22;11481;53.694;9.910;2023-07-20T15:37:46;19.80;99.90
22629;DHT22;11481;53.694;9.910;2023-07-20T15:40:12;19.70;99.90
22629;DHT22;11481;53.694;9.910;2023-07-20T15:42:39;19.70;99.90
22629;DHT22;11481;53.694;9.910;2023-07-20T15:45:07;19.90;99.90
22629;DHT22;11481;53.694;9.910;2023-07-20T15:47:33;19.50;99.90
22629;DHT22;11481;53.694;9.910;2023-07-20T15:50:00;19.40;99.90